createdAt,value
2018-04-17T00:02:25.316Z,99771.08
2018-04-17T00:04:52.897Z,99770.16
2018-04-17T00:07:20.464Z,99769.22
2018-04-17T00:09:48.035Z,99776.14
2018-04-17T00:12:15.504Z,99774.48
2018-04-17T00:14:43.073Z,99773.08
2018-04-17T00:17:10.548Z,99780.59
2018-04-17T00:19:38.029Z,99786.63
2018-04-17T00:22:05.508Z,99781.57
2018-04-17T00:24:33.001Z,99786.98
2018-04-17T00:27:00.455Z,99793.00
2018-04-17T00:29:27.910Z,99799.08
2018-04-17T00:31:55.411Z,99791.27
2018-04-17T00:34:22.875Z,99803.05
2018-04-17T00:36:50.356Z,99789.98
2018-04-17T00:39:17.808Z,99790.42
2018-04-17T00:41:45.270Z,99793.95
2018-04-17T00:44:12.746Z,99805.73
2018-04-17T00:46:40.201Z,99808.03
2018-04-17T00:49:07.662Z,99832.20
2018-04-17T00:51:35.158Z,99817.14
2018-04-17T00:54:04.404Z,99815.63
2018-04-17T00:56:31.866Z,99818.17
2018-04-17T00:58:59.810Z,99827.65
2018-04-17T01:01:27.269Z,99827.83
2018-04-17T01:03:54.754Z,99815.34
2018-04-17T01:06:22.280Z,99816.40
2018-04-17T01:08:49.753Z,99816.48
2018-04-17T01:11:17.204Z,99831.17
2018-04-17T01:13:44.668Z,99832.83
2018-04-17T01:16:12.125Z,99834.52
2018-04-17T01:18:39.607Z,99839.92
2018-04-17T01:21:07.083Z,99838.13
2018-04-17T01:23:34.521Z,99839.70
2018-04-17T01:26:02.145Z,99845.53
2018-04-17T01:28:29.627Z,99836.69
2018-04-17T01:30:57.087Z,99843.20
2018-04-17T01:33:24.576Z,99849.73
2018-04-17T01:35:52.041Z,99840.30
2018-04-17T01:38:19.559Z,99844.48
2018-04-17T01:40:47.009Z,99849.33
2018-04-17T01:43:14.473Z,99850.75
2018-04-17T01:45:41.953Z,99852.30
2018-04-17T01:48:09.428Z,99859.43
2018-04-17T01:50:36.927Z,99856.95
2018-04-17T01:53:04.389Z,99864.77
2018-04-17T01:55:31.845Z,99868.59
2018-04-17T01:57:59.377Z,99869.14
2018-04-17T02:00:26.897Z,99876.22
2018-04-17T02:02:54.429Z,99875.85
2018-04-17T02:05:21.903Z,99879.88
2018-04-17T02:07:49.377Z,99885.56
2018-04-17T02:10:16.842Z,99886.08
2018-04-17T02:12:44.321Z,99896.98
2018-04-17T02:15:17.281Z,99897.70
2018-04-17T02:17:44.739Z,99893.72
2018-04-17T02:20:12.224Z,99890.28
2018-04-17T02:22:39.672Z,99894.66
2018-04-17T02:25:07.166Z,99891.77
2018-04-17T02:27:34.618Z,99892.78
2018-04-17T02:30:02.083Z,99903.69
2018-04-17T02:32:29.555Z,99888.88
2018-04-17T02:34:57.020Z,99895.09
2018-04-17T02:37:24.478Z,99894.80
2018-04-17T02:39:51.957Z,99892.06
2018-04-17T02:42:19.508Z,99885.55
2018-04-17T02:44:46.965Z,99899.80
2018-04-17T02:47:14.469Z,99891.35
2018-04-17T02:49:41.911Z,99895.52
2018-04-17T02:52:09.462Z,99903.83
2018-04-17T02:54:36.938Z,99900.81
2018-04-17T02:57:04.385Z,99898.09
2018-04-17T02:59:31.854Z,99903.22
2018-04-17T03:01:59.366Z,99893.66
2018-04-17T03:04:26.843Z,99891.00
2018-04-17T03:06:54.339Z,99896.41
2018-04-17T03:09:21.870Z,99891.69
2018-04-17T03:11:49.334Z,99888.31
2018-04-17T03:14:16.778Z,99883.94
2018-04-17T03:16:44.249Z,99887.74
2018-04-17T03:19:11.715Z,99901.97
2018-04-17T03:21:39.162Z,99907.55
2018-04-17T03:24:06.622Z,99914.22
2018-04-17T03:26:34.070Z,99907.44
2018-04-17T03:29:01.573Z,99932.45
2018-04-17T03:31:29.267Z,99944.00
2018-04-17T03:33:56.727Z,99917.29
2018-04-17T03:36:24.201Z,99905.02
2018-04-17T03:38:51.663Z,99909.12
2018-04-17T03:41:19.198Z,99903.04
2018-04-17T03:43:46.673Z,99902.09
2018-04-17T03:46:14.185Z,99905.86
2018-04-17T03:48:41.635Z,99914.10
2018-04-17T03:51:09.116Z,99921.22
2018-04-17T03:53:36.585Z,99932.32
2018-04-17T03:56:04.043Z,99935.81
2018-04-17T03:58:31.510Z,99940.30
2018-04-17T04:00:58.974Z,99947.53
2018-04-17T04:03:26.437Z,99958.25
2018-04-17T04:05:53.897Z,99962.84
2018-04-17T04:08:21.361Z,99966.50
2018-04-17T04:10:48.837Z,99971.80
2018-04-17T04:13:16.290Z,99980.78
2018-04-17T04:15:43.755Z,99992.17
2018-04-17T04:18:23.119Z,99991.67
2018-04-17T04:21:02.375Z,99994.17
2018-04-17T04:23:41.712Z,99987.73
2018-04-17T04:26:20.926Z,99995.12
2018-04-17T04:28:51.493Z,99997.80
2018-04-17T04:31:18.956Z,100000.25
2018-04-17T04:33:46.449Z,99993.99
2018-04-17T04:36:13.929Z,99992.44
2018-04-17T04:38:41.385Z,99993.33
2018-04-17T04:41:08.903Z,99987.19
2018-04-17T04:43:36.373Z,99990.56
2018-04-17T04:46:03.845Z,100007.34
2018-04-17T04:48:31.341Z,99997.91
2018-04-17T04:50:58.814Z,100006.02
2018-04-17T04:53:26.268Z,100010.74
2018-04-17T04:55:53.741Z,100003.00
2018-04-17T04:58:21.205Z,100003.58
2018-04-17T05:00:48.731Z,100005.90
2018-04-17T05:03:16.200Z,100011.61
2018-04-17T05:05:43.730Z,100013.13
2018-04-17T05:08:11.186Z,100014.75
2018-04-17T05:10:38.682Z,100025.27
2018-04-17T05:13:06.157Z,100026.34
2018-04-17T05:15:33.648Z,100027.41
2018-04-17T05:18:01.144Z,100027.34
2018-04-17T05:20:28.750Z,100025.87
2018-04-17T05:22:56.244Z,100046.70
2018-04-17T05:25:23.724Z,100037.45
2018-04-17T05:27:51.193Z,100033.69
2018-04-17T05:30:18.665Z,100050.97
2018-04-17T05:32:46.125Z,100051.86
2018-04-17T05:35:13.814Z,100053.56
2018-04-17T05:37:41.295Z,100041.45
2018-04-17T05:40:08.815Z,100057.27
2018-04-17T05:42:36.262Z,100049.48
2018-04-17T05:45:03.737Z,100059.61
2018-04-17T05:47:31.603Z,100066.80
2018-04-17T05:49:59.120Z,100073.88
2018-04-17T05:52:26.599Z,100068.34
2018-04-17T05:54:54.096Z,100079.72
2018-04-17T05:57:21.561Z,100081.30
2018-04-17T05:59:49.039Z,100105.74
2018-04-17T06:02:16.695Z,100079.48
2018-04-17T06:04:44.171Z,100082.50
2018-04-17T06:07:11.647Z,100080.89
2018-04-17T06:09:39.170Z,100084.09
2018-04-17T06:12:06.667Z,100086.29
2018-04-17T06:14:34.150Z,100087.52
2018-04-17T06:17:01.629Z,100096.30
2018-04-17T06:19:29.118Z,100099.82
2018-04-17T06:21:56.640Z,100105.33
2018-04-17T06:26:56.938Z,100103.70
2018-04-17T06:29:24.436Z,100119.36
2018-04-17T06:31:51.946Z,100105.61
2018-04-17T06:34:19.406Z,100110.14
2018-04-17T06:36:46.898Z,100111.13
2018-04-17T06:39:14.362Z,100117.89
2018-04-17T06:41:41.844Z,100114.53
2018-04-17T06:44:09.306Z,100113.95
2018-04-17T06:46:36.791Z,100109.73
2018-04-17T06:49:04.262Z,100115.52
2018-04-17T06:51:31.841Z,100113.09
2018-04-17T06:53:59.319Z,100098.36
2018-04-17T06:56:26.781Z,100107.22
2018-04-17T06:58:54.365Z,100114.67
2018-04-17T07:01:21.824Z,100115.17
2018-04-17T07:03:49.306Z,100126.95
2018-04-17T07:06:16.783Z,100125.38
2018-04-17T07:08:44.299Z,100137.92
2018-04-17T07:11:11.775Z,100130.21
2018-04-17T07:13:39.285Z,100144.09
2018-04-17T07:16:06.759Z,100145.71
2018-04-17T07:18:34.241Z,100157.89
2018-04-17T07:21:01.774Z,100159.86
2018-04-17T07:23:29.250Z,100150.54
2018-04-17T07:25:56.760Z,100173.91
2018-04-17T07:28:24.258Z,100167.66
2018-04-17T07:30:51.719Z,100173.79
2018-04-17T07:33:19.177Z,100173.18
2018-04-17T07:35:46.676Z,100180.32
2018-04-17T07:38:14.933Z,100180.25
2018-04-17T07:40:42.455Z,100188.33
2018-04-17T07:43:09.926Z,100187.48
2018-04-17T07:45:37.377Z,100192.24
2018-04-17T07:48:23.346Z,100207.61
2018-04-17T07:50:50.883Z,100189.72
2018-04-17T07:53:18.380Z,100207.36
2018-04-17T07:55:47.454Z,100196.23
2018-04-17T07:58:14.883Z,100211.45
2018-04-17T08:00:42.346Z,100207.41
2018-04-17T08:03:09.825Z,100217.13
2018-04-17T08:05:37.288Z,100211.33
2018-04-17T08:08:04.747Z,100202.63
2018-04-17T08:10:32.226Z,100210.94
2018-04-17T08:12:59.714Z,100228.97
2018-04-17T08:15:27.186Z,100227.92
2018-04-17T08:17:54.672Z,100236.55
2018-04-17T08:20:22.134Z,100226.28
2018-04-17T08:22:49.606Z,100217.43
2018-04-17T08:25:17.062Z,100232.38
2018-04-17T08:27:44.543Z,100230.05
2018-04-17T08:30:12.010Z,100239.66
2018-04-17T08:32:39.527Z,100231.48
2018-04-17T08:35:07.003Z,100235.49
2018-04-17T08:37:34.512Z,100245.23
2018-04-17T08:40:02.008Z,100265.97
2018-04-17T08:42:29.518Z,100239.08
2018-04-17T08:44:56.985Z,100237.45
2018-04-17T08:47:24.518Z,100242.55
2018-04-17T08:49:52.003Z,100242.03
2018-04-17T08:52:19.533Z,100242.11
2018-04-17T08:54:48.376Z,100250.23
2018-04-17T08:57:15.948Z,100252.92
2018-04-17T08:59:43.524Z,100256.98
2018-04-17T09:02:11.051Z,100250.52
2018-04-17T09:04:38.543Z,100253.33
2018-04-17T09:07:06.074Z,100261.33
2018-04-17T09:09:33.952Z,100253.20
2018-04-17T09:12:01.556Z,100252.46
2018-04-17T09:14:29.048Z,100253.17
2018-04-17T09:16:56.538Z,100262.72
2018-04-17T09:19:24.051Z,100261.46
2018-04-17T09:21:51.567Z,100260.39
2018-04-17T09:24:19.086Z,100271.55
2018-04-17T09:26:46.580Z,100267.10
2018-04-17T09:29:14.101Z,100271.83
2018-04-17T09:31:41.561Z,100269.48
2018-04-17T09:34:09.054Z,100262.72
2018-04-17T09:36:36.537Z,100271.80
2018-04-17T09:39:04.062Z,100260.23
2018-04-17T09:41:31.550Z,100270.82
2018-04-17T09:43:59.044Z,100267.53
2018-04-17T09:46:26.548Z,100265.56
2018-04-17T09:48:54.023Z,100278.09
2018-04-17T09:51:22.638Z,100266.20
2018-04-17T09:53:50.173Z,100263.53
2018-04-17T09:56:17.654Z,100266.02
2018-04-17T09:58:45.162Z,100263.64
2018-04-17T10:01:18.171Z,100260.06
2018-04-17T10:03:45.629Z,100268.03
2018-04-17T10:06:13.094Z,100265.70
2018-04-17T10:08:40.616Z,100274.67
2018-04-17T10:11:08.134Z,100263.93
2018-04-17T10:13:35.610Z,100253.74
2018-04-17T10:16:03.094Z,100262.09
2018-04-17T10:18:30.566Z,100257.37
2018-04-17T10:20:58.719Z,100250.91
2018-04-17T10:23:26.215Z,100250.52
2018-04-17T10:25:53.694Z,100249.28
2018-04-17T10:28:21.219Z,100261.09
2018-04-17T10:30:48.717Z,100237.12
2018-04-17T10:33:17.954Z,100238.77
2018-04-17T10:35:45.502Z,100255.59
2018-04-17T10:38:13.917Z,100252.70
2018-04-17T10:40:41.442Z,100256.16
2018-04-17T10:43:08.938Z,100244.25
2018-04-17T10:45:36.423Z,100247.67
2018-04-17T10:48:03.915Z,100248.62
2018-04-17T10:50:31.432Z,100248.41
2018-04-17T10:52:59.521Z,100247.82
2018-04-17T10:55:27.027Z,100245.22
2018-04-17T10:57:55.842Z,100257.55
2018-04-17T11:00:23.300Z,100248.27
2018-04-17T11:02:50.852Z,100245.88
2018-04-17T11:05:18.321Z,100268.97
2018-04-17T11:07:45.798Z,100246.05
2018-04-17T11:10:13.267Z,100253.68
2018-04-17T11:12:40.756Z,100254.17
2018-04-17T11:15:08.237Z,100241.05
2018-04-17T11:17:35.739Z,100234.91
2018-04-17T11:20:03.241Z,100240.42
2018-04-17T11:22:30.732Z,100234.48
2018-04-17T11:24:58.254Z,100247.51
2018-04-17T11:27:25.770Z,100234.72
2018-04-17T11:29:53.283Z,100229.38
2018-04-17T11:32:20.891Z,100258.05
2018-04-17T11:34:51.402Z,100254.45
2018-04-17T11:37:19.042Z,100241.60
2018-04-17T11:39:46.502Z,100249.52
2018-04-17T11:42:15.171Z,100238.09
2018-04-17T11:44:42.714Z,100247.00
2018-04-17T11:47:10.199Z,100262.90
2018-04-17T11:49:37.686Z,100261.96
2018-04-17T11:52:05.218Z,100287.33
2018-04-17T11:54:32.695Z,100268.28
2018-04-17T11:57:00.195Z,100266.66
2018-04-17T11:59:27.690Z,100256.78
2018-04-17T12:01:55.239Z,100258.49
2018-04-17T12:04:22.723Z,100257.28
2018-04-17T12:06:50.237Z,100259.05
2018-04-17T12:09:17.770Z,100251.70
2018-04-17T12:11:45.764Z,100244.01
2018-04-17T12:14:13.319Z,100246.16
2018-04-17T12:16:40.889Z,100259.13
2018-04-17T12:19:08.382Z,100247.67
2018-04-17T12:21:35.924Z,100242.56
2018-04-17T12:24:03.452Z,100243.89
2018-04-17T12:26:31.771Z,100248.42
2018-04-17T12:28:59.367Z,100240.73
2018-04-17T12:31:26.891Z,100255.14
2018-04-17T12:33:54.391Z,100239.95
2018-04-17T12:36:21.889Z,100249.94
2018-04-17T12:38:49.403Z,100246.16
2018-04-17T12:41:16.929Z,100242.25
2018-04-17T12:43:44.482Z,100244.22
2018-04-17T12:46:12.431Z,100257.32
2018-04-17T12:48:39.927Z,100273.66
2018-04-17T12:51:07.914Z,100246.04
2018-04-17T12:53:35.406Z,100241.22
2018-04-17T12:56:02.928Z,100252.38
2018-04-17T12:58:30.512Z,100244.84
2018-04-17T13:00:58.011Z,100255.42
2018-04-17T13:03:33.978Z,100249.80
2018-04-17T13:06:02.819Z,100241.33
2018-04-17T13:08:34.562Z,100237.68
2018-04-17T13:11:02.756Z,100265.52
2018-04-17T13:13:30.317Z,100282.94
2018-04-17T13:15:57.843Z,100245.81
2018-04-17T13:18:25.437Z,100245.06
2018-04-17T13:20:52.920Z,100237.97
2018-04-17T13:23:20.438Z,100240.69
2018-04-17T13:25:48.009Z,100240.87
2018-04-17T13:28:15.518Z,100249.63
2018-04-17T13:30:43.046Z,100246.73
2018-04-17T13:33:10.529Z,100244.91
2018-04-17T13:35:38.062Z,100257.92
2018-04-17T13:38:05.640Z,100263.34
2018-04-17T13:40:33.119Z,100244.50
2018-04-17T13:43:00.663Z,100239.52
2018-04-17T13:45:28.223Z,100239.14
2018-04-17T13:47:55.690Z,100247.18
2018-04-17T13:50:23.242Z,100251.00
2018-04-17T13:52:50.777Z,100237.30
2018-04-17T13:55:18.244Z,100248.61
2018-04-17T13:57:45.781Z,100241.56
2018-04-17T14:00:13.300Z,100240.73
2018-04-17T14:02:40.800Z,100239.43
2018-04-17T14:05:08.287Z,100244.13
2018-04-17T14:07:35.782Z,100245.19
2018-04-17T14:10:03.278Z,100246.03
2018-04-17T14:12:30.782Z,100244.40
2018-04-17T14:14:58.302Z,100241.06
2018-04-17T14:17:25.803Z,100238.41
2018-04-17T14:19:53.254Z,100237.37
2018-04-17T14:22:20.725Z,100241.09
2018-04-17T14:24:48.232Z,100235.52
2018-04-17T14:27:15.706Z,100239.42
2018-04-17T14:29:43.177Z,100245.89
2018-04-17T14:32:10.677Z,100244.40
2018-04-17T14:34:38.185Z,100239.59
2018-04-17T14:37:05.666Z,100244.09
2018-04-17T14:39:33.255Z,100241.86
2018-04-17T14:42:00.897Z,100228.83
2018-04-17T14:44:28.362Z,100242.27
2018-04-17T14:46:55.818Z,100248.58
2018-04-17T14:49:23.318Z,100240.48
2018-04-17T14:51:50.788Z,100235.55
2018-04-17T14:54:18.418Z,100239.38
2018-04-17T14:56:45.898Z,100238.23
2018-04-17T14:59:13.366Z,100234.66
2018-04-17T15:01:40.846Z,100232.71
2018-04-17T15:04:08.318Z,100239.41
2018-04-17T15:06:35.766Z,100242.70
2018-04-17T15:09:03.279Z,100253.16
2018-04-17T15:11:30.763Z,100244.45
2018-04-17T15:13:58.241Z,100241.88
2018-04-17T15:16:25.707Z,100243.65
2018-04-17T15:18:53.177Z,100250.50
2018-04-17T15:21:20.641Z,100249.44
2018-04-17T15:23:48.871Z,100261.50
2018-04-17T15:26:16.348Z,100254.43
2018-04-17T15:28:43.831Z,100262.35
2018-04-17T15:31:11.324Z,100261.99
2018-04-17T15:33:38.792Z,100262.19
2018-04-17T15:36:06.253Z,100258.50
2018-04-17T15:38:33.706Z,100253.75
2018-04-17T15:41:01.206Z,100256.90
2018-04-17T15:43:28.677Z,100271.30
2018-04-17T15:45:56.286Z,100263.52
2018-04-17T15:48:23.828Z,100270.68
2018-04-17T15:50:51.312Z,100282.19
2018-04-17T15:53:18.888Z,100273.11
2018-04-17T15:55:46.354Z,100270.72
2018-04-17T15:58:13.845Z,100264.45
2018-04-17T16:00:41.295Z,100266.67
2018-04-17T16:03:08.783Z,100262.56
2018-04-17T16:05:36.267Z,100270.41
2018-04-17T16:08:03.796Z,100266.73
2018-04-17T16:10:31.439Z,100277.13
2018-04-17T16:12:58.980Z,100279.30
2018-04-17T16:15:26.406Z,100277.75
2018-04-17T16:17:53.933Z,100281.41
2018-04-17T16:20:21.414Z,100294.60
2018-04-17T16:22:48.898Z,100280.03
2018-04-17T16:25:16.373Z,100278.72
2018-04-17T16:27:43.837Z,100289.77
2018-04-17T16:30:11.325Z,100287.33
2018-04-17T16:32:38.855Z,100289.20
2018-04-17T16:35:06.314Z,100284.20
2018-04-17T16:37:33.814Z,100286.70
2018-04-17T16:40:01.292Z,100288.16
2018-04-17T16:42:28.756Z,100286.17
2018-04-17T16:44:56.221Z,100285.78
2018-04-17T16:47:23.710Z,100290.92
2018-04-17T16:49:51.194Z,100289.02
2018-04-17T16:52:18.653Z,100297.68
2018-04-17T16:54:46.149Z,100287.61
2018-04-17T16:57:13.604Z,100286.00
2018-04-17T16:59:41.065Z,100295.08
2018-04-17T17:02:08.535Z,100298.00
2018-04-17T17:04:36.005Z,100302.13
2018-04-17T17:07:03.486Z,100309.60
2018-04-17T17:09:30.954Z,100309.89
2018-04-17T17:11:58.427Z,100311.93
2018-04-17T17:14:25.925Z,100311.77
2018-04-17T17:16:53.497Z,100316.72
2018-04-17T17:19:20.986Z,100318.72
2018-04-17T17:21:48.541Z,100327.12
2018-04-17T17:24:16.012Z,100332.21
2018-04-17T17:26:43.509Z,100337.00
2018-04-17T17:29:10.973Z,100346.17
2018-04-17T17:31:38.506Z,100346.56
2018-04-17T17:34:07.222Z,100352.81
2018-04-17T17:36:34.711Z,100360.30
2018-04-17T17:39:02.185Z,100360.25
2018-04-17T17:41:29.867Z,100365.61
2018-04-17T17:43:57.353Z,100371.75
2018-04-17T17:46:24.821Z,100366.14
2018-04-17T17:48:52.295Z,100379.94
2018-04-17T17:51:19.772Z,100384.55
2018-04-17T17:53:47.277Z,100383.89
2018-04-17T17:56:14.748Z,100393.42
2018-04-17T17:58:42.215Z,100395.30
2018-04-17T18:01:09.791Z,100403.36
2018-04-17T18:03:37.351Z,100403.79
2018-04-17T18:06:04.845Z,100403.75
2018-04-17T18:08:32.320Z,100407.15
2018-04-17T18:10:59.805Z,100409.81
2018-04-17T18:13:27.292Z,100413.26
2018-04-17T18:15:54.853Z,100421.92
2018-04-17T18:18:22.358Z,100428.98
2018-04-17T18:20:49.844Z,100431.55
2018-04-17T18:23:17.322Z,100440.37
2018-04-17T18:38:56.366Z,100475.17
2018-04-17T18:41:23.881Z,100478.33
2018-04-17T18:43:51.342Z,100483.72
2018-04-17T18:46:19.124Z,100491.69
2018-04-17T18:48:46.634Z,100495.45
2018-04-17T18:51:14.112Z,100502.50
2018-04-17T18:53:41.609Z,100504.72
2018-04-17T18:56:09.081Z,100507.69
2018-04-17T18:58:36.545Z,100514.97
2018-04-17T19:01:04.106Z,100523.42
2018-04-17T19:03:31.619Z,100526.33
2018-04-17T19:05:59.116Z,100537.31
2018-04-17T19:08:26.612Z,100543.13
2018-04-17T19:10:54.195Z,100543.62
2018-04-17T19:13:21.735Z,100549.11
2018-04-17T19:15:50.158Z,100553.16
2018-04-17T19:18:17.662Z,100556.28
2018-04-17T19:20:45.238Z,100556.88
2018-04-17T19:23:12.924Z,100562.11
2018-04-17T19:25:40.419Z,100569.80
2018-04-17T19:28:08.052Z,100573.59
2018-04-17T19:30:35.648Z,100580.56
2018-04-17T19:33:03.736Z,100579.87
2018-04-17T19:35:31.217Z,100583.79
2018-04-17T19:37:58.717Z,100585.60
2018-04-17T19:40:26.208Z,100585.60
2018-04-17T19:42:53.706Z,100591.34
2018-04-17T19:45:21.640Z,100586.80
2018-04-17T19:47:49.145Z,100588.97
2018-04-17T19:50:16.636Z,100597.22
2018-04-17T19:52:44.862Z,100601.47
2018-04-17T19:55:12.338Z,100602.54
2018-04-17T20:00:11.473Z,100603.41
2018-04-17T20:02:39.071Z,100607.95
2018-04-17T20:05:06.638Z,100615.11
2018-04-17T20:07:34.115Z,100614.65
2018-04-17T20:10:01.627Z,100620.69
2018-04-17T20:12:29.127Z,100625.67
2018-04-17T20:14:56.633Z,100626.45
2018-04-17T20:17:24.923Z,100633.48
2018-04-17T20:19:52.479Z,100635.16
2018-04-17T20:22:20.134Z,100633.58
2018-04-17T20:24:48.005Z,100640.91
2018-04-17T20:27:15.517Z,100635.64
2018-04-17T20:29:43.014Z,100645.33
2018-04-17T20:32:10.820Z,100644.92
2018-04-17T20:34:38.728Z,100640.47
2018-04-17T20:37:06.308Z,100652.79
2018-04-17T20:39:34.906Z,100652.56
2018-04-17T20:42:02.492Z,100655.23
2018-04-17T20:44:29.998Z,100648.84
2018-04-17T20:46:57.622Z,100658.59
2018-04-17T20:49:25.210Z,100660.56
2018-04-17T20:51:54.619Z,100660.08
2018-04-17T20:54:23.390Z,100668.02
2018-04-17T20:56:51.018Z,100671.47
2018-04-17T20:59:18.577Z,100666.44
2018-04-17T21:01:47.160Z,100674.72
2018-04-17T21:04:14.698Z,100679.76
2018-04-17T21:06:42.206Z,100675.39
2018-04-17T21:09:09.770Z,100679.09
2018-04-17T21:11:37.294Z,100680.08
2018-04-17T21:14:04.848Z,100682.81
2018-04-17T21:16:32.555Z,100686.26
2018-04-17T21:19:00.077Z,100682.62
2018-04-17T21:21:28.364Z,100688.47
2018-04-17T21:23:55.882Z,100689.77
2018-04-17T21:26:23.436Z,100694.30
2018-04-17T21:28:50.961Z,100703.36
2018-04-17T21:31:18.442Z,100710.32
2018-04-17T21:33:45.949Z,100707.79
2018-04-17T21:36:13.515Z,100717.91
2018-04-17T21:38:41.038Z,100721.29
2018-04-17T21:41:08.610Z,100723.93
2018-04-17T21:43:36.086Z,100725.64
2018-04-17T21:46:03.646Z,100727.95
2018-04-17T21:48:31.190Z,100733.20
2018-04-17T21:50:58.705Z,100734.47
2018-04-17T21:53:26.218Z,100737.06
2018-04-17T21:55:53.755Z,100737.70
2018-04-17T21:58:21.270Z,100740.76
2018-04-17T22:00:48.771Z,100743.23
2018-04-17T22:03:16.301Z,100748.55
2018-04-17T22:05:43.943Z,100750.06
2018-04-17T22:08:11.438Z,100751.30
2018-04-17T22:10:38.943Z,100751.61
2018-04-17T22:13:06.443Z,100756.39
2018-04-17T22:15:34.091Z,100762.48
2018-04-17T22:18:01.612Z,100762.14
2018-04-17T22:20:29.146Z,100763.95
2018-04-17T22:22:56.642Z,100760.17
2018-04-17T22:25:24.144Z,100763.23
2018-04-17T22:27:51.688Z,100758.50
2018-04-17T22:30:19.194Z,100768.48
2018-04-17T22:32:46.754Z,100765.48
2018-04-17T22:35:14.260Z,100767.20
2018-04-17T22:37:41.883Z,100769.52
2018-04-17T22:40:09.405Z,100776.00
2018-04-17T22:42:37.544Z,100773.26
2018-04-17T22:45:05.057Z,100779.70
2018-04-17T22:47:32.675Z,100781.98
2018-04-17T22:50:00.293Z,100780.73
2018-04-17T22:52:27.907Z,100782.06
2018-04-17T22:54:55.482Z,100783.48
2018-04-17T22:57:23.058Z,100785.24
2018-04-17T22:59:50.558Z,100788.09
2018-04-17T23:02:18.034Z,100788.59
2018-04-17T23:04:45.533Z,100791.56
2018-04-17T23:07:13.046Z,100786.41
2018-04-17T23:09:40.537Z,100789.77
2018-04-17T23:12:08.574Z,100789.66
2018-04-17T23:14:36.133Z,100798.17
2018-04-17T23:17:03.645Z,100795.23
2018-04-17T23:19:32.086Z,100789.73
2018-04-17T23:21:59.581Z,100797.89
2018-04-17T23:24:27.075Z,100801.38
2018-04-17T23:26:54.583Z,100802.16
2018-04-17T23:29:22.131Z,100800.83
2018-04-17T23:31:51.633Z,100790.28
2018-04-17T23:34:19.138Z,100797.62
2018-04-17T23:36:46.882Z,100801.12
2018-04-17T23:39:14.366Z,100797.69
2018-04-17T23:41:41.846Z,100799.87
2018-04-17T23:44:09.338Z,100802.48
2018-04-17T23:46:36.853Z,100797.33
2018-04-17T23:49:04.325Z,100804.63
2018-04-17T23:51:32.570Z,100802.05
2018-04-17T23:54:00.046Z,100800.91
2018-04-17T23:56:27.593Z,100801.38
2018-04-17T23:58:55.153Z,100801.84
